Buoy 33972

sailwx.info

Track history (hours):
 
Tides and Currents Weather Stations Pressure Air Temp Water Temp Dewpoint Dewpoint Depression Visibility Wind Speed Wind Dir Waves Ship Positions

Drifting buoy 33972

Last reported at 2018-Apr-19 08:00 UTC. Time now 2018-Apr-19 10:26 UTC.
Position S 47°41' W 034°26'.

Barometer 1010.0 mb
Water temperature 8.2 ° C

Date/timePositionNaut miles runAvg speedWind from/ knotsBaromVisibWave heightAir tempDewpointWater temp
2018-Apr-19 08:00S 47°41' W 034°26'6 1.4 1010.0 8.2
2018-Apr-19 04:00S 47°45' W 034°31'0 0.0 1008.2 8.2
2018-Apr-19 03:00S 47°45' W 034°31'0 0.0 1007.1 8.2
2018-Apr-19 02:00S 47°45' W 034°31'1 0.3 1006.1 8.2
2018-Apr-19 00:00S 47°46' W 034°31'2 1.8 1003.8 8.2
2018-Apr-18 23:00S 47°47' W 034°31'3 3.0 1003.0 8.2
2018-Apr-18 22:00S 47°50' W 034°31'0 0.0 1002.6 8.2
2018-Apr-18 20:00S 47°50' W 034°31'2 2.4 1000.8 8.2
2018-Apr-18 19:00S 47°53' W 034°31'7 7.2 1000.5 8.2
2018-Apr-18 18:00S 47°59' W 034°35'1 0.2 1000.3 8.2
2018-Apr-18 11:00S 48°01' W 034°35'1 0.8 1000.1 8.5
2018-Apr-18 10:00S 48°01' W 034°37'1 1.3 1000.1 8.5
2018-Apr-18 09:00S 48°02' W 034°36'0 0.0 999.5 8.5
2018-Apr-18 08:00S 48°02' W 034°36'2 2.0 999.5 8.5
2018-Apr-18 07:00S 48°04' W 034°35'2 0.6 999.1 8.5
2018-Apr-18 04:00S 48°05' W 034°34'4 3.8 998.7 8.5
2018-Apr-18 03:00S 48°09' W 034°36'0 0.0 996.8 8.5
2018-Apr-18 02:00S 48°09' W 034°36'0 0.0 998.1 8.5
2018-Apr-18 01:00S 48°09' W 034°36'2 1.7 999.9 8.5
2018-Apr-18 00:00S 48°10' W 034°38'1 0.7 1001.8 8.5
2018-Apr-17 22:00S 48°11' W 034°40'1 0.4 1005.1 8.5
2018-Apr-17 20:00S 48°11' W 034°41'0 0.0 1006.9 8.5
2018-Apr-17 19:00S 48°11' W 034°41'4 4.5 1008.0 8.5
2018-Apr-17 18:00S 48°15' W 034°38'1 0.1 1008.7 8.6
2018-Apr-17 12:00S 48°16' W 034°39'2 0.9 1012.0 8.5
2018-Apr-17 10:00S 48°17' W 034°38'0 0.4 1012.2 8.5
2018-Apr-17 09:00S 48°17' W 034°39'2 0.6 1012.7 8.5
2018-Apr-17 06:00S 48°19' W 034°41'0 0.4 1014.3 8.4
2018-Apr-17 05:00S 48°19' W 034°41'1 0.2 1014.7 8.4
2018-Apr-17 01:00S 48°19' W 034°40'1 0.8 1017.7 8.3
2018-Apr-17 00:00S 48°19' W 034°39'1 0.6 1018.1 8.3
2018-Apr-16 23:00S 48°20' W 034°39'1 0.7 1018.7 8.3
2018-Apr-16 22:00S 48°20' W 034°38'1 0.7 1019.1 8.3
2018-Apr-16 21:00S 48°21' W 034°39'1 1.0 1019.5 8.3
2018-Apr-16 20:00S 48°22' W 034°38'1 1.3 1019.5 8.3
2018-Apr-16 19:00S 48°23' W 034°38'1 0.8 1019.9 8.3
2018-Apr-16 18:00S 48°23' W 034°37'3 0.5 1020.2 8.3
2018-Apr-16 12:00S 48°25' W 034°41'0 0.4 1022.4 8.2
2018-Apr-16 11:00S 48°25' W 034°41'1 0.7 1022.6 8.2
2018-Apr-16 10:00S 48°25' W 034°41'2 1.0 1022.9 8.2
2018-Apr-16 08:00S 48°26' W 034°38'1 0.6 1023.5 8.1
2018-Apr-16 06:00S 48°27' W 034°38'1 0.7 1024.1 8.1
2018-Apr-16 05:00S 48°26' W 034°38'3 0.8 1025.2 8.1
2018-Apr-16 01:00S 48°29' W 034°39'1 0.6 1027.7 8.1
2018-Apr-16 00:00S 48°29' W 034°39'0 0.4 1027.8 8.1
2018-Apr-15 23:00S 48°29' W 034°40'1 0.8 1028.1 8.1
2018-Apr-15 22:00S 48°29' W 034°41'0 0.4 1028.7 8.1
2018-Apr-15 21:00S 48°29' W 034°40'0 0.0 1028.7 8.1
2018-Apr-15 20:00S 48°29' W 034°40'1 0.6 1028.6 8.1
2018-Apr-15 18:00S 48°29' W 034°38'3 2.7 1028.3 8.2
2018-Apr-15 17:00S 48°31' W 034°35'0 0.0 1028.6 8.2
2018-Apr-15 16:00S 48°31' W 034°35'0 0.1 1028.8 8.2
2018-Apr-15 12:00S 48°31' W 034°35'1 0.6 1029.3 8.2
2018-Apr-15 11:00S 48°31' W 034°35'1 1.3 1029.4 8.2
2018-Apr-15 10:00S 48°32' W 034°34'0 0.2 1028.7 8.2
2018-Apr-15 08:00S 48°32' W 034°35'1 0.7 1028.3 8.2
2018-Apr-15 07:00S 48°33' W 034°35'0 0.0 1027.7 8.2
2018-Apr-15 06:00S 48°33' W 034°35'2 0.4 1027.6 8.2
2018-Apr-15 02:00S 48°32' W 034°33'1 1.2 1026.9 8.3
2018-Apr-15 01:00S 48°32' W 034°31'0 0.0 1026.6 8.3
2018-Apr-15 00:00S 48°32' W 034°31'0 0.0 1026.5 8.3
2018-Apr-14 23:00S 48°32' W 034°31'2 1.0 1026.2 8.3
2018-Apr-14 21:00S 48°34' W 034°29'1 0.7 1024.8 8.4
2018-Apr-14 20:00S 48°34' W 034°29'2 1.7 1024.0 8.5
2018-Apr-14 19:00S 48°35' W 034°28'1 1.0 1023.3 8.5
2018-Apr-14 18:00S 48°36' W 034°29'0 0.0 1022.7 8.5
2018-Apr-14 17:00S 48°36' W 034°29'1 0.2 1021.9 8.6
2018-Apr-14 12:00S 48°36' W 034°28'1 0.7 1017.4 8.6
2018-Apr-14 11:00S 48°35' W 034°27'1 1.0 1016.3 8.6
2018-Apr-14 10:00S 48°36' W 034°26'2 2.4 1014.6 8.6
2018-Apr-14 09:00S 48°36' W 034°22'0 0.0 1012.9 8.6
2018-Apr-14 08:00S 48°36' W 034°22'1 0.6 1011.0 8.6
2018-Apr-14 07:00S 48°37' W 034°22'0 0.0 1009.2 8.6
2018-Apr-14 06:00S 48°37' W 034°22'1 1.0 1007.4 8.6
2018-Apr-14 05:00S 48°37' W 034°21'1 1.3 1006.1 8.6
2018-Apr-14 04:00S 48°38' W 034°19'0 0.0 1004.9 8.6
2018-Apr-14 03:00S 48°38' W 034°19'1 0.4 1003.6 8.6
2018-Apr-14 00:00S 48°39' W 034°19'1 0.7 1001.1 8.7
2018-Apr-13 23:00S 48°40' W 034°19'0 0.0 1000.1 8.7
2018-Apr-13 21:00S 48°40' W 034°19'1 0.3 997.9 8.7
2018-Apr-13 19:00S 48°39' W 034°19'1 1.0 996.0 8.7
2018-Apr-13 18:00S 48°38' W 034°17'0 0.0 995.2 8.7
2018-Apr-13 17:00S 48°38' W 034°17'4 0.9 994.4 8.7
2018-Apr-13 12:00S 48°40' W 034°11'1 0.6 991.8 8.7
2018-Apr-13 10:00S 48°41' W 034°11'1 0.6 991.1 8.7
2018-Apr-13 09:00S 48°42' W 034°11'0 0.0 990.6 8.7
2018-Apr-13 08:00S 48°42' W 034°11'0 0.4 990.5 8.7
2018-Apr-13 07:00S 48°42' W 034°11'1 0.4 990.9 8.7
2018-Apr-13 05:00S 48°41' W 034°12'2 0.7 991.2 8.7
2018-Apr-13 02:00S 48°40' W 034°10'0 0.0 991.9 8.7
2018-Apr-13 01:00S 48°40' W 034°10'1 1.2 991.9 8.7
2018-Apr-13 00:00S 48°40' W 034°08'0 0.0 991.7 8.7
2018-Apr-12 23:00S 48°40' W 034°08'3 3.0 991.1 8.7
2018-Apr-12 22:00S 48°41' W 034°04'0 0.0 990.6 8.7
2018-Apr-12 21:00S 48°41' W 034°04'0 0.0 990.0 8.7
2018-Apr-12 20:00S 48°41' W 034°04'1 1.0 988.8 8.7
2018-Apr-12 19:00S 48°42' W 034°02'1 1.3 988.4 8.7
2018-Apr-12 18:00S 48°43' W 034°02'1 1.4 988.1 8.7
2018-Apr-12 17:00S 48°44' W 034°03'1 0.1 986.0 8.7
2018-Apr-12 12:00S 48°44' W 034°03'1 0.4 982.1 8.7
2018-Apr-12 10:00S 48°44' W 034°02'1 0.7 984.9 8.7
2018-Apr-12 08:00S 48°43' W 034°01'1 0.8 990.0 8.7
2018-Apr-12 07:00S 48°43' W 033°59'2 1.7 993.1 8.7
2018-Apr-12 06:00S 48°43' W 033°57'0 0.0 994.9 8.7
2018-Apr-12 05:00S 48°43' W 033°57'0 0.4 996.9 8.7
2018-Apr-12 04:00S 48°43' W 033°56'1 0.3 999.3 8.7
2018-Apr-12 00:00S 48°44' W 033°56'1 0.7 1003.1 8.7
2018-Apr-11 23:00S 48°45' W 033°55'1 0.7 1003.3 8.7
2018-Apr-11 22:00S 48°44' W 033°55'0 0.0 1003.2 8.7
2018-Apr-11 21:00S 48°44' W 033°55'0 0.0 1002.7 8.7
2018-Apr-11 20:00S 48°44' W 033°55'1 1.2 1001.6 8.7
2018-Apr-11 19:00S 48°44' W 033°53'1 0.6 1001.6 8.7
2018-Apr-11 18:00S 48°44' W 033°53'3 2.8 1001.5 8.7
2018-Apr-11 17:00S 48°44' W 033°49'1 0.1 1000.8 8.7
2018-Apr-11 11:00S 48°45' W 033°48'0 0.4 1001.2 8.7
2018-Apr-11 10:00S 48°45' W 033°47'1 0.7 1000.4 8.7
2018-Apr-11 09:00S 48°46' W 033°48'1 0.8 999.8 8.7
2018-Apr-11 08:00S 48°46' W 033°47'1 0.1 999.9 8.7
2018-Apr-11 04:00S 48°45' W 033°47'1 0.7 1007.0 8.6
2018-Apr-11 03:00S 48°44' W 033°47'2 0.8 1008.1 8.6
2018-Apr-11 01:00S 48°44' W 033°45'1 0.7 1010.2 8.6
2018-Apr-11 00:00S 48°43' W 033°46'1 0.6 1011.4 8.6
2018-Apr-10 23:00S 48°44' W 033°46'1 1.3 1012.4 8.6
2018-Apr-10 22:00S 48°43' W 033°44'1 1.3 1013.0 8.6
2018-Apr-10 21:00S 48°44' W 033°42'1 1.2 1013.7 8.6
2018-Apr-10 20:00S 48°44' W 033°40'1 0.7 1014.1 8.6
2018-Apr-10 19:00S 48°44' W 033°40'1 1.3 1014.4 8.6
2018-Apr-10 18:00S 48°46' W 033°39'0 0.0 1014.0 8.6
2018-Apr-10 12:00S 48°46' W 033°39'0 0.4 1012.0 8.7
2018-Apr-10 11:00S 48°46' W 033°38'2 1.2 1010.8 8.7
2018-Apr-10 09:00S 48°45' W 033°35'6 1.3 1008.5 8.7
2018-Apr-10 04:00S 48°49' W 033°28'3 3.4 999.8 8.7
2018-Apr-10 03:00S 48°47' W 033°31'3 3.4 997.7 8.8
2018-Apr-10 02:00S 48°49' W 033°28'1 0.4 995.6 8.8
2018-Apr-10 00:00S 48°50' W 033°27'2 0.8 991.3 8.8
2018-Apr-09 22:00S 48°51' W 033°25'1 0.4 986.9 8.8
2018-Apr-09 20:00S 48°52' W 033°25'1 1.0 983.4 8.8
2018-Apr-09 19:00S 48°52' W 033°23'4 3.7 982.0 8.8
2018-Apr-09 18:00S 48°55' W 033°19'1 0.2 981.1 8.8
2018-Apr-09 12:00S 48°55' W 033°18'1 1.0 981.1 8.8
2018-Apr-09 11:00S 48°56' W 033°17'1 0.7 980.9 8.8
2018-Apr-09 10:00S 48°56' W 033°17'1 0.7 980.9 8.8
2018-Apr-09 09:00S 48°57' W 033°17'0 0.4 981.1 8.8
2018-Apr-09 08:00S 48°57' W 033°16'   980.9 8.8
Track history (hours):
 
Tides and Currents Weather Stations Pressure Air Temp Water Temp Dewpoint Dewpoint Depression Visibility Wind Speed Wind Dir Waves Ship Positions

Drifting buoy 33972

Last reported at 2018-Apr-19 08:00 UTC. Time now 2018-Apr-19 10:26 UTC.
Position S 47°41' W 034°26'.

Barometer 1010.0 mb
Water temperature 8.2 ° C

Date/timePositionNaut miles runAvg speedWind from/ knotsBaromVisibWave heightAir tempDewpointWater temp
2018-Apr-19 08:00S 47°41' W 034°26'6 1.4 1010.0 8.2
2018-Apr-19 04:00S 47°45' W 034°31'0 0.0 1008.2 8.2
2018-Apr-19 03:00S 47°45' W 034°31'0 0.0 1007.1 8.2
2018-Apr-19 02:00S 47°45' W 034°31'1 0.3 1006.1 8.2
2018-Apr-19 00:00S 47°46' W 034°31'2 1.8 1003.8 8.2
2018-Apr-18 23:00S 47°47' W 034°31'3 3.0 1003.0 8.2
2018-Apr-18 22:00S 47°50' W 034°31'0 0.0 1002.6 8.2
2018-Apr-18 20:00S 47°50' W 034°31'2 2.4 1000.8 8.2
2018-Apr-18 19:00S 47°53' W 034°31'7 7.2 1000.5 8.2
2018-Apr-18 18:00S 47°59' W 034°35'1 0.2 1000.3 8.2
2018-Apr-18 11:00S 48°01' W 034°35'1 0.8 1000.1 8.5
2018-Apr-18 10:00S 48°01' W 034°37'1 1.3 1000.1 8.5
2018-Apr-18 09:00S 48°02' W 034°36'0 0.0 999.5 8.5
2018-Apr-18 08:00S 48°02' W 034°36'2 2.0 999.5 8.5
2018-Apr-18 07:00S 48°04' W 034°35'2 0.6 999.1 8.5
2018-Apr-18 04:00S 48°05' W 034°34'4 3.8 998.7 8.5
2018-Apr-18 03:00S 48°09' W 034°36'0 0.0 996.8 8.5
2018-Apr-18 02:00S 48°09' W 034°36'0 0.0 998.1 8.5
2018-Apr-18 01:00S 48°09' W 034°36'2 1.7 999.9 8.5
2018-Apr-18 00:00S 48°10' W 034°38'1 0.7 1001.8 8.5
2018-Apr-17 22:00S 48°11' W 034°40'1 0.4 1005.1 8.5
2018-Apr-17 20:00S 48°11' W 034°41'0 0.0 1006.9 8.5
2018-Apr-17 19:00S 48°11' W 034°41'4 4.5 1008.0 8.5
2018-Apr-17 18:00S 48°15' W 034°38'1 0.1 1008.7 8.6
2018-Apr-17 12:00S 48°16' W 034°39'2 0.9 1012.0 8.5
2018-Apr-17 10:00S 48°17' W 034°38'0 0.4 1012.2 8.5
2018-Apr-17 09:00S 48°17' W 034°39'2 0.6 1012.7 8.5
2018-Apr-17 06:00S 48°19' W 034°41'0 0.4 1014.3 8.4
2018-Apr-17 05:00S 48°19' W 034°41'1 0.2 1014.7 8.4
2018-Apr-17 01:00S 48°19' W 034°40'1 0.8 1017.7 8.3
2018-Apr-17 00:00S 48°19' W 034°39'1 0.6 1018.1 8.3
2018-Apr-16 23:00S 48°20' W 034°39'1 0.7 1018.7 8.3
2018-Apr-16 22:00S 48°20' W 034°38'1 0.7 1019.1 8.3
2018-Apr-16 21:00S 48°21' W 034°39'1 1.0 1019.5 8.3
2018-Apr-16 20:00S 48°22' W 034°38'1 1.3 1019.5 8.3
2018-Apr-16 19:00S 48°23' W 034°38'1 0.8 1019.9 8.3
2018-Apr-16 18:00S 48°23' W 034°37'3 0.5 1020.2 8.3
2018-Apr-16 12:00S 48°25' W 034°41'0 0.4 1022.4 8.2
2018-Apr-16 11:00S 48°25' W 034°41'1 0.7 1022.6 8.2
2018-Apr-16 10:00S 48°25' W 034°41'2 1.0 1022.9 8.2
2018-Apr-16 08:00S 48°26' W 034°38'1 0.6 1023.5 8.1
2018-Apr-16 06:00S 48°27' W 034°38'1 0.7 1024.1 8.1
2018-Apr-16 05:00S 48°26' W 034°38'3 0.8 1025.2 8.1
2018-Apr-16 01:00S 48°29' W 034°39'1 0.6 1027.7 8.1
2018-Apr-16 00:00S 48°29' W 034°39'0 0.4 1027.8 8.1
2018-Apr-15 23:00S 48°29' W 034°40'1 0.8 1028.1 8.1
2018-Apr-15 22:00S 48°29' W 034°41'0 0.4 1028.7 8.1
2018-Apr-15 21:00S 48°29' W 034°40'0 0.0 1028.7 8.1
2018-Apr-15 20:00S 48°29' W 034°40'1 0.6 1028.6 8.1
2018-Apr-15 18:00S 48°29' W 034°38'3 2.7 1028.3 8.2
2018-Apr-15 17:00S 48°31' W 034°35'0 0.0 1028.6 8.2
2018-Apr-15 16:00S 48°31' W 034°35'0 0.1 1028.8 8.2
2018-Apr-15 12:00S 48°31' W 034°35'1 0.6 1029.3 8.2
2018-Apr-15 11:00S 48°31' W 034°35'1 1.3 1029.4 8.2
2018-Apr-15 10:00S 48°32' W 034°34'0 0.2 1028.7 8.2
2018-Apr-15 08:00S 48°32' W 034°35'1 0.7 1028.3 8.2
2018-Apr-15 07:00S 48°33' W 034°35'0 0.0 1027.7 8.2
2018-Apr-15 06:00S 48°33' W 034°35'2 0.4 1027.6 8.2
2018-Apr-15 02:00S 48°32' W 034°33'1 1.2 1026.9 8.3
2018-Apr-15 01:00S 48°32' W 034°31'0 0.0 1026.6 8.3
2018-Apr-15 00:00S 48°32' W 034°31'0 0.0 1026.5 8.3
2018-Apr-14 23:00S 48°32' W 034°31'2 1.0 1026.2 8.3
2018-Apr-14 21:00S 48°34' W 034°29'1 0.7 1024.8 8.4
2018-Apr-14 20:00S 48°34' W 034°29'2 1.7 1024.0 8.5
2018-Apr-14 19:00S 48°35' W 034°28'1 1.0 1023.3 8.5
2018-Apr-14 18:00S 48°36' W 034°29'0 0.0 1022.7 8.5
2018-Apr-14 17:00S 48°36' W 034°29'1 0.2 1021.9 8.6
2018-Apr-14 12:00S 48°36' W 034°28'1 0.7 1017.4 8.6
2018-Apr-14 11:00S 48°35' W 034°27'1 1.0 1016.3 8.6
2018-Apr-14 10:00S 48°36' W 034°26'2 2.4 1014.6 8.6
2018-Apr-14 09:00S 48°36' W 034°22'0 0.0 1012.9 8.6
2018-Apr-14 08:00S 48°36' W 034°22'1 0.6 1011.0 8.6
2018-Apr-14 07:00S 48°37' W 034°22'0 0.0 1009.2 8.6
2018-Apr-14 06:00S 48°37' W 034°22'1 1.0 1007.4 8.6
2018-Apr-14 05:00S 48°37' W 034°21'1 1.3 1006.1 8.6
2018-Apr-14 04:00S 48°38' W 034°19'0 0.0 1004.9 8.6
2018-Apr-14 03:00S 48°38' W 034°19'1 0.4 1003.6 8.6
2018-Apr-14 00:00S 48°39' W 034°19'1 0.7 1001.1 8.7
2018-Apr-13 23:00S 48°40' W 034°19'0 0.0 1000.1 8.7
2018-Apr-13 21:00S 48°40' W 034°19'1 0.3 997.9 8.7
2018-Apr-13 19:00S 48°39' W 034°19'1 1.0 996.0 8.7
2018-Apr-13 18:00S 48°38' W 034°17'0 0.0 995.2 8.7
2018-Apr-13 17:00S 48°38' W 034°17'4 0.9 994.4 8.7
2018-Apr-13 12:00S 48°40' W 034°11'1 0.6 991.8 8.7
2018-Apr-13 10:00S 48°41' W 034°11'1 0.6 991.1 8.7
2018-Apr-13 09:00S 48°42' W 034°11'0 0.0 990.6 8.7
2018-Apr-13 08:00S 48°42' W 034°11'0 0.4 990.5 8.7
2018-Apr-13 07:00S 48°42' W 034°11'1 0.4 990.9 8.7
2018-Apr-13 05:00S 48°41' W 034°12'2 0.7 991.2 8.7
2018-Apr-13 02:00S 48°40' W 034°10'0 0.0 991.9 8.7
2018-Apr-13 01:00S 48°40' W 034°10'1 1.2 991.9 8.7
2018-Apr-13 00:00S 48°40' W 034°08'0 0.0 991.7 8.7
2018-Apr-12 23:00S 48°40' W 034°08'3 3.0 991.1 8.7
2018-Apr-12 22:00S 48°41' W 034°04'0 0.0 990.6 8.7
2018-Apr-12 21:00S 48°41' W 034°04'0 0.0 990.0 8.7
2018-Apr-12 20:00S 48°41' W 034°04'1 1.0 988.8 8.7
2018-Apr-12 19:00S 48°42' W 034°02'1 1.3 988.4 8.7
2018-Apr-12 18:00S 48°43' W 034°02'1 1.4 988.1 8.7
2018-Apr-12 17:00S 48°44' W 034°03'1 0.1 986.0 8.7
2018-Apr-12 12:00S 48°44' W 034°03'1 0.4 982.1 8.7
2018-Apr-12 10:00S 48°44' W 034°02'1 0.7 984.9 8.7
2018-Apr-12 08:00S 48°43' W 034°01'1 0.8 990.0 8.7
2018-Apr-12 07:00S 48°43' W 033°59'2 1.7 993.1 8.7
2018-Apr-12 06:00S 48°43' W 033°57'0 0.0 994.9 8.7
2018-Apr-12 05:00S 48°43' W 033°57'0 0.4 996.9 8.7
2018-Apr-12 04:00S 48°43' W 033°56'1 0.3 999.3 8.7
2018-Apr-12 00:00S 48°44' W 033°56'1 0.7 1003.1 8.7
2018-Apr-11 23:00S 48°45' W 033°55'1 0.7 1003.3 8.7
2018-Apr-11 22:00S 48°44' W 033°55'0 0.0 1003.2 8.7
2018-Apr-11 21:00S 48°44' W 033°55'0 0.0 1002.7 8.7
2018-Apr-11 20:00S 48°44' W 033°55'1 1.2 1001.6 8.7
2018-Apr-11 19:00S 48°44' W 033°53'1 0.6 1001.6 8.7
2018-Apr-11 18:00S 48°44' W 033°53'3 2.8 1001.5 8.7
2018-Apr-11 17:00S 48°44' W 033°49'1 0.1 1000.8 8.7
2018-Apr-11 11:00S 48°45' W 033°48'0 0.4 1001.2 8.7
2018-Apr-11 10:00S 48°45' W 033°47'1 0.7 1000.4 8.7
2018-Apr-11 09:00S 48°46' W 033°48'1 0.8 999.8 8.7
2018-Apr-11 08:00S 48°46' W 033°47'1 0.1 999.9 8.7
2018-Apr-11 04:00S 48°45' W 033°47'1 0.7 1007.0 8.6
2018-Apr-11 03:00S 48°44' W 033°47'2 0.8 1008.1 8.6
2018-Apr-11 01:00S 48°44' W 033°45'1 0.7 1010.2 8.6
2018-Apr-11 00:00S 48°43' W 033°46'1 0.6 1011.4 8.6
2018-Apr-10 23:00S 48°44' W 033°46'1 1.3 1012.4 8.6
2018-Apr-10 22:00S 48°43' W 033°44'1 1.3 1013.0 8.6
2018-Apr-10 21:00S 48°44' W 033°42'1 1.2 1013.7 8.6
2018-Apr-10 20:00S 48°44' W 033°40'1 0.7 1014.1 8.6
2018-Apr-10 19:00S 48°44' W 033°40'1 1.3 1014.4 8.6
2018-Apr-10 18:00S 48°46' W 033°39'0 0.0 1014.0 8.6
2018-Apr-10 12:00S 48°46' W 033°39'0 0.4 1012.0 8.7
2018-Apr-10 11:00S 48°46' W 033°38'2 1.2 1010.8 8.7
2018-Apr-10 09:00S 48°45' W 033°35'6 1.3 1008.5 8.7
2018-Apr-10 04:00S 48°49' W 033°28'3 3.4 999.8 8.7
2018-Apr-10 03:00S 48°47' W 033°31'3 3.4 997.7 8.8
2018-Apr-10 02:00S 48°49' W 033°28'1 0.4 995.6 8.8
2018-Apr-10 00:00S 48°50' W 033°27'2 0.8 991.3 8.8
2018-Apr-09 22:00S 48°51' W 033°25'1 0.4 986.9 8.8
2018-Apr-09 20:00S 48°52' W 033°25'1 1.0 983.4 8.8
2018-Apr-09 19:00S 48°52' W 033°23'4 3.7 982.0 8.8
2018-Apr-09 18:00S 48°55' W 033°19'1 0.2 981.1 8.8
2018-Apr-09 12:00S 48°55' W 033°18'1 1.0 981.1 8.8
2018-Apr-09 11:00S 48°56' W 033°17'1 0.7 980.9 8.8
2018-Apr-09 10:00S 48°56' W 033°17'1 0.7 980.9 8.8
2018-Apr-09 09:00S 48°57' W 033°17'0 0.4 981.1 8.8
2018-Apr-09 08:00S 48°57' W 033°16'   980.9 8.8

Dump ship's entire track history